Time;durP1;ratioP1;P1;durP2;ratioP2;P2;SDS_P1;SDS_P2;PMS_P1;PMS_P2;Temp;Humidity;BMP_temperature;BMP_pressure;BME280_temperature;BME280_humidity;BME280_pressure;Samples;Min_cycle;Max_cycle;Signal;HPM_P1;HPM_P2
2022/04/09 00:01:00;;;;;;;8.52;4.85;;;;;;;6.72;63.91;97094.47;4976332;28;20026;-80
2022/04/09 00:03:26;;;;;;;6.40;4.63;;;;;;;6.65;63.31;97097.41;5009178;28;20042;-80
2022/04/09 00:05:51;;;;;;;8.70;4.57;;;;;;;6.63;63.61;97098.72;5010790;28;20596;-80
2022/04/09 00:08:16;;;;;;;8.65;4.20;;;;;;;6.58;63.79;97110.13;5009180;28;20697;-79
2022/04/09 00:10:42;;;;;;;7.68;4.88;;;;;;;6.66;63.62;97106.16;5018394;28;20034;-80
2022/04/09 00:13:07;;;;;;;6.00;3.95;;;;;;;6.58;63.84;97099.50;4992920;28;20478;-80
2022/04/09 00:15:32;;;;;;;11.13;4.25;;;;;;;6.55;64.22;97107.97;5009074;28;20053;-80
2022/04/09 00:17:58;;;;;;;6.82;4.32;;;;;;;6.58;64.05;97109.31;5008735;28;20087;-79
2022/04/09 00:20:23;;;;;;;4.78;4.18;;;;;;;6.57;64.73;97113.84;5002222;28;20034;-80
2022/04/09 00:22:48;;;;;;;9.23;4.80;;;;;;;6.56;63.68;97111.44;5024717;28;20037;-80
2022/04/09 00:25:21;;;;;;;7.38;3.70;;;;;;;6.57;64.06;97111.19;4992847;28;20049;-79
2022/04/09 00:27:47;;;;;;;6.18;3.60;;;;;;;6.54;64.09;97118.84;5009600;28;20593;-80
2022/04/09 00:30:12;;;;;;;11.05;3.63;;;;;;;6.51;64.43;97120.19;5010725;28;20045;-80
2022/04/09 00:32:38;;;;;;;7.22;3.95;;;;;;;6.50;63.85;97131.06;5009028;28;20034;-79
2022/04/09 00:35:05;;;;;;;5.85;3.28;;;;;;;6.50;64.26;97128.41;5008914;28;20400;-80
2022/04/09 00:37:31;;;;;;;5.97;3.47;;;;;;;6.41;64.56;97128.13;5010057;28;20109;-80
2022/04/09 00:39:56;;;;;;;7.75;3.50;;;;;;;6.48;64.37;97135.81;5009245;28;20113;-80
2022/04/09 00:42:22;;;;;;;7.45;3.30;;;;;;;6.42;64.43;97135.00;5008817;28;20088;-80
2022/04/09 00:44:49;;;;;;;6.25;3.40;;;;;;;6.45;64.34;97139.00;5000565;28;20052;-79
2022/04/09 00:47:16;;;;;;;5.95;2.88;;;;;;;6.40;64.67;97149.59;5010154;28;20068;-80
2022/04/09 00:49:41;;;;;;;6.07;3.13;;;;;;;6.44;64.00;97158.63;5008755;28;20525;-80
2022/04/09 00:52:08;;;;;;;4.22;2.67;;;;;;;6.42;64.58;97150.13;5010504;28;20547;-80
2022/04/09 00:54:37;;;;;;;6.60;4.22;;;;;;;6.43;64.63;97159.66;5000050;28;20041;-80
2022/04/09 00:57:07;;;;;;;9.98;3.25;;;;;;;6.39;64.92;97161.25;5009699;28;20077;-80
2022/04/09 00:59:37;;;;;;;6.30;3.40;;;;;;;6.45;64.50;97165.50;4993158;28;20046;-80
2022/04/09 01:02:03;;;;;;;4.97;3.15;;;;;;;6.47;65.17;97181.91;5010144;28;20037;-80
2022/04/09 01:04:31;;;;;;;4.65;3.03;;;;;;;6.45;64.61;97184.84;5008597;28;20038;-80
2022/04/09 01:06:58;;;;;;;5.18;3.08;;;;;;;6.45;65.04;97186.69;5008670;28;20109;-80
2022/04/09 01:09:23;;;;;;;8.55;3.33;;;;;;;6.39;65.33;97180.59;4992735;28;20038;-79
2022/04/09 01:11:50;;;;;;;7.65;2.95;;;;;;;6.37;65.16;97190.66;5009778;28;20425;-80
2022/04/09 01:14:16;;;;;;;5.28;3.05;;;;;;;6.35;65.20;97192.78;5009253;28;20034;-80
2022/04/09 01:16:41;;;;;;;4.97;2.95;;;;;;;6.42;64.80;97205.78;5011827;28;20033;-80
2022/04/09 01:19:07;;;;;;;9.70;3.20;;;;;;;6.36;64.96;97209.44;4996217;28;20029;-80
2022/04/09 01:21:32;;;;;;;5.22;2.88;;;;;;;6.36;65.19;97217.41;5014037;28;20508;-80
2022/04/09 01:23:59;;;;;;;8.70;3.70;;;;;;;6.27;64.91;97219.75;5012472;28;20029;-80
2022/04/09 01:26:25;;;;;;;7.38;3.53;;;;;;;6.36;65.01;97230.66;4995993;28;20536;-80
2022/04/09 01:28:50;;;;;;;9.90;3.13;;;;;;;6.33;64.92;97239.13;4979217;28;20128;-80
2022/04/09 01:31:16;;;;;;;12.52;4.28;;;;;;;6.31;65.59;97235.94;5011793;28;20033;-80
2022/04/09 01:33:42;;;;;;;10.82;4.18;;;;;;;6.32;65.03;97237.53;4995058;28;20433;-80
2022/04/09 01:36:07;;;;;;;11.98;3.42;;;;;;;6.26;65.26;97254.47;5011799;28;20037;-80
2022/04/09 01:38:34;;;;;;;11.05;3.33;;;;;;;6.29;65.11;97252.09;5013130;28;20044;-80
2022/04/09 01:41:00;;;;;;;8.30;3.85;;;;;;;6.33;65.74;97255.84;5011521;28;20077;-80
2022/04/09 01:43:25;;;;;;;6.80;3.08;;;;;;;6.30;65.55;97268.78;5005983;28;20038;-80
2022/04/09 01:45:50;;;;;;;9.73;4.20;;;;;;;6.34;65.00;97264.56;5019771;28;20026;-80
2022/04/09 01:48:16;;;;;;;7.75;3.45;;;;;;;6.37;65.34;97266.69;5009454;28;20053;-80
2022/04/09 01:50:41;;;;;;;8.98;3.67;;;;;;;6.31;65.19;97273.03;4997368;28;20116;-80
2022/04/09 01:53:07;;;;;;;7.40;3.15;;;;;;;6.23;65.72;97289.41;5006103;28;20025;-80
2022/04/09 01:55:33;;;;;;;11.98;3.17;;;;;;;6.27;65.93;97286.00;5002520;28;20062;-80
2022/04/09 01:57:58;;;;;;;13.32;3.17;;;;;;;6.27;65.30;97293.16;4995233;28;20033;-80
2022/04/09 02:00:24;;;;;;;7.53;2.75;;;;;;;6.24;65.82;97298.97;4995296;28;20026;-80
2022/04/09 02:02:50;;;;;;;12.52;3.28;;;;;;;6.24;65.26;97299.78;5012789;28;20053;-80
2022/04/09 02:05:15;;;;;;;9.95;3.42;;;;;;;6.23;65.37;97303.47;4995311;28;20069;-80
2022/04/09 02:07:42;;;;;;;5.43;3.20;;;;;;;6.25;65.89;97313.78;5012386;28;20018;-80
2022/04/09 02:10:09;;;;;;;9.43;3.10;;;;;;;6.24;66.20;97314.88;5012372;28;20025;-80
2022/04/09 02:12:35;;;;;;;9.57;3.85;;;;;;;6.22;65.96;97317.78;4992608;28;20401;-79
2022/04/09 02:15:02;;;;;;;7.07;2.85;;;;;;;6.18;66.24;97313.25;5005560;28;20025;-80
2022/04/09 02:17:28;;;;;;;7.07;4.30;;;;;;;6.22;65.91;97328.38;5010762;28;20045;-80
2022/04/09 02:19:53;;;;;;;4.05;2.17;;;;;;;6.21;66.25;97331.25;4982366;28;20030;-80
2022/04/09 02:22:19;;;;;;;10.00;3.08;;;;;;;6.18;65.91;97326.50;4995035;28;20083;-80
2022/04/09 02:24:44;;;;;;;13.43;4.82;;;;;;;6.19;66.00;97344.78;5026596;28;20386;-80
2022/04/09 02:27:10;;;;;;;8.10;2.70;;;;;;;6.21;66.16;97347.97;5008092;28;20030;-80
2022/04/09 02:29:36;;;;;;;9.95;2.67;;;;;;;6.27;66.34;97341.63;5011119;28;20429;-80
2022/04/09 02:32:02;;;;;;;5.78;2.75;;;;;;;6.22;66.33;97348.78;5019963;28;20037;-80
2022/04/09 02:34:28;;;;;;;5.78;2.75;;;;;;;6.19;66.03;97358.03;5022149;28;20518;-80
2022/04/09 02:36:53;;;;;;;8.00;3.03;;;;;;;6.25;66.30;97359.63;5026402;28;20030;-80
2022/04/09 02:39:21;;;;;;;8.55;3.65;;;;;;;6.28;66.03;97379.53;4994459;28;20030;-79
2022/04/09 02:41:48;;;;;;;10.10;2.72;;;;;;;6.28;66.09;97390.13;4999366;28;20037;-80
2022/04/09 02:44:13;;;;;;;9.40;2.92;;;;;;;6.23;66.16;97393.53;5012316;28;20120;-79
2022/04/09 02:46:39;;;;;;;8.15;3.13;;;;;;;6.25;65.78;97383.47;5011885;28;20830;-80
2022/04/09 02:49:04;;;;;;;6.10;2.55;;;;;;;6.30;66.04;97385.34;5026796;28;20084;-80
2022/04/09 02:51:29;;;;;;;6.35;2.63;;;;;;;6.27;66.44;97389.31;4994111;28;20116;-80
2022/04/09 02:53:55;;;;;;;5.65;2.78;;;;;;;6.33;66.33;97393.63;4994166;28;20433;-80
2022/04/09 02:56:20;;;;;;;6.97;3.05;;;;;;;6.35;65.97;97396.00;5011486;28;20552;-80
2022/04/09 02:58:45;;;;;;;9.60;3.20;;;;;;;6.22;66.16;97394.59;4999270;28;20113;-80
2022/04/09 03:01:10;;;;;;;7.95;2.72;;;;;;;6.26;66.64;97410.78;5011325;28;20234;-80
2022/04/09 03:03:36;;;;;;;5.78;2.58;;;;;;;6.24;66.32;97410.25;5010365;28;20485;-80
2022/04/09 03:06:01;;;;;;;8.48;2.75;;;;;;;6.21;66.45;97406.25;5012283;28;20044;-80
2022/04/09 03:08:27;;;;;;;9.05;2.67;;;;;;;6.16;66.30;97414.16;5009695;28;20457;-80
2022/04/09 03:10:53;;;;;;;7.65;2.75;;;;;;;6.24;66.21;97426.13;5010347;28;20064;-80
2022/04/09 03:13:19;;;;;;;4.32;2.63;;;;;;;6.19;66.36;97431.38;5010336;28;20493;-79
2022/04/09 03:15:44;;;;;;;6.15;2.55;;;;;;;6.14;65.78;97428.72;5015278;28;20038;-80
2022/04/09 03:18:10;;;;;;;6.68;3.20;;;;;;;6.17;66.05;97433.50;5021042;28;20485;-80
2022/04/09 03:20:36;;;;;;;7.55;3.20;;;;;;;6.22;66.48;97444.13;5010857;28;20029;-79
2022/04/09 03:23:02;;;;;;;9.43;3.03;;;;;;;6.17;66.57;97446.75;5011423;28;20026;-80
2022/04/09 03:25:27;;;;;;;5.43;2.42;;;;;;;6.15;66.61;97448.84;5010380;28;20120;-80
2022/04/09 03:27:52;;;;;;;6.15;3.33;;;;;;;6.11;66.07;97447.75;5025592;28;20044;-79
2022/04/09 03:30:18;;;;;;;10.55;3.15;;;;;;;6.12;66.53;97463.41;4993227;28;20049;-80
2022/04/09 03:32:43;;;;;;;4.03;2.63;;;;;;;6.13;66.02;97454.41;5005297;28;20037;-80
2022/04/09 03:35:10;;;;;;;4.95;3.00;;;;;;;6.10;66.06;97476.09;4993142;28;20030;-80
2022/04/09 03:37:36;;;;;;;6.30;3.60;;;;;;;6.14;66.49;97463.16;5007600;28;20042;-80
2022/04/09 03:40:04;;;;;;;11.60;2.97;;;;;;;6.17;66.32;97467.94;5010070;28;20393;-80
2022/04/09 03:42:29;;;;;;;11.02;2.50;;;;;;;6.12;66.05;97465.22;4993638;28;20025;-80
2022/04/09 03:44:55;;;;;;;9.48;3.10;;;;;;;6.10;66.40;97467.34;5010144;28;20497;-80
2022/04/09 03:47:20;;;;;;;6.22;2.60;;;;;;;6.12;66.75;97473.19;5009962;28;20563;-80
2022/04/09 03:49:45;;;;;;;5.10;3.13;;;;;;;6.11;66.45;97474.25;5010127;28;20021;-80
2022/04/09 03:52:10;;;;;;;11.02;3.13;;;;;;;6.14;66.33;97487.00;5000422;28;20038;-80
2022/04/09 03:54:38;;;;;;;9.35;3.15;;;;;;;6.11;66.27;97487.50;4992652;28;20046;-80
2022/04/09 03:57:03;;;;;;;11.70;3.95;;;;;;;6.10;66.68;97489.34;5019644;28;20022;-80
2022/04/09 03:59:28;;;;;;;10.82;4.28;;;;;;;6.12;66.40;97500.47;5003500;28;20037;-79
2022/04/09 04:01:54;;;;;;;10.85;3.17;;;;;;;6.08;66.36;97494.09;5009199;28;20046;-79
2022/04/09 04:04:19;;;;;;;5.93;2.88;;;;;;;6.03;66.99;97505.44;5009578;28;20417;-80
2022/04/09 04:06:45;;;;;;;6.35;2.60;;;;;;;6.04;66.39;97507.06;4993283;28;20029;-80
2022/04/09 04:09:12;;;;;;;5.10;2.65;;;;;;;6.01;66.73;97510.19;5009160;28;20034;-79
2022/04/09 04:11:37;;;;;;;10.00;3.00;;;;;;;6.01;66.53;97517.31;4993193;28;20034;-79
2022/04/09 04:14:04;;;;;;;9.88;3.00;;;;;;;6.01;66.19;97523.44;4993042;28;20236;-79
2022/04/09 04:16:29;;;;;;;12.52;4.47;;;;;;;5.93;66.97;97529.19;5023822;28;20493;-79
2022/04/09 04:18:55;;;;;;;7.47;2.47;;;;;;;5.94;66.39;97530.00;5009550;28;20034;-80
2022/04/09 04:21:20;;;;;;;7.63;3.20;;;;;;;5.97;66.81;97534.78;5008713;28;20045;-80
2022/04/09 04:23:46;;;;;;;9.60;2.80;;;;;;;5.91;66.32;97531.28;4992632;28;20030;-79
2022/04/09 04:26:11;;;;;;;10.52;3.25;;;;;;;5.93;66.65;97549.56;4996721;28;20050;-80
2022/04/09 04:28:36;;;;;;;5.68;3.05;;;;;;;5.89;66.83;97559.88;4992734;28;20065;-80
2022/04/09 04:31:02;;;;;;;11.00;3.08;;;;;;;5.86;66.75;97557.72;4998293;28;20406;-80
2022/04/09 04:33:27;;;;;;;7.80;2.88;;;;;;;5.86;67.44;97565.66;4999544;28;20512;-80
2022/04/09 04:35:53;;;;;;;9.68;2.85;;;;;;;5.91;67.24;97565.72;5011316;28;20034;-80
2022/04/09 04:38:18;;;;;;;10.65;3.17;;;;;;;5.84;67.78;97565.09;5010450;28;20065;-80
2022/04/09 04:40:43;;;;;;;8.25;3.13;;;;;;;5.86;67.43;97583.38;5010210;28;20038;-80
2022/04/09 04:43:08;;;;;;;5.50;2.70;;;;;;;5.86;67.88;97591.31;4993302;28;20026;-80
2022/04/09 04:45:34;;;;;;;5.97;2.88;;;;;;;5.81;68.13;97593.91;5009162;28;20033;-80
2022/04/09 04:47:59;;;;;;;7.97;3.25;;;;;;;5.82;67.65;97592.84;5008174;28;20033;-80
2022/04/09 04:50:25;;;;;;;5.25;2.45;;;;;;;5.84;67.28;97602.19;5011274;28;20481;-80
2022/04/09 04:52:51;;;;;;;6.13;2.97;;;;;;;5.84;67.77;97607.47;5013240;28;20026;-80
2022/04/09 04:55:16;;;;;;;6.25;2.58;;;;;;;5.83;68.01;97607.69;5013116;28;20033;-80
2022/04/09 04:57:44;;;;;;;7.70;2.72;;;;;;;5.78;67.71;97613.72;5007530;28;20092;-80
2022/04/09 05:00:10;;;;;;;8.95;2.85;;;;;;;5.75;67.66;97614.22;4992317;28;20136;-80
2022/04/09 05:02:35;;;;;;;9.77;3.35;;;;;;;5.71;68.02;97621.06;5012349;28;20508;-80
2022/04/09 05:05:01;;;;;;;9.05;2.80;;;;;;;5.78;67.70;97623.53;5012185;28;20346;-80
2022/04/09 05:07:43;;;;;;;7.65;2.97;;;;;;;5.85;68.00;97637.41;5012045;28;20046;-80
2022/04/09 05:10:13;;;;;;;3.88;2.83;;;;;;;5.84;67.89;97647.19;5008364;28;20040;-79
2022/04/09 05:12:39;;;;;;;11.45;3.70;;;;;;;5.76;68.52;97642.31;5012059;28;20049;-79
2022/04/09 05:15:06;;;;;;;11.65;2.95;;;;;;;5.84;68.11;97643.72;4995641;28;20030;-79
2022/04/09 05:17:32;;;;;;;8.02;3.65;;;;;;;5.81;67.67;97645.00;5012342;28;20164;-79
2022/04/09 05:19:58;;;;;;;10.40;3.35;;;;;;;5.83;68.10;97648.19;5012338;28;20128;-80
2022/04/09 05:22:25;;;;;;;8.02;3.28;;;;;;;5.84;68.17;97649.03;5012156;28;20477;-80
2022/04/09 05:24:52;;;;;;;5.15;3.00;;;;;;;5.83;68.24;97666.72;5013879;28;20056;-80
2022/04/09 05:27:17;;;;;;;11.73;3.47;;;;;;;5.82;68.82;97654.56;5013323;28;20542;-80
2022/04/09 05:29:42;;;;;;;10.93;2.78;;;;;;;5.85;68.31;97669.94;5018851;28;20117;-79
2022/04/09 05:32:08;;;;;;;11.35;3.85;;;;;;;5.81;68.61;97676.75;4979382;28;20402;-79
2022/04/09 05:34:33;;;;;;;5.60;3.28;;;;;;;5.82;69.22;97683.66;5009807;28;20038;-79
2022/04/09 05:36:58;;;;;;;6.03;3.13;;;;;;;5.83;69.29;97692.41;5011921;28;20498;-79
2022/04/09 05:39:23;;;;;;;9.07;3.10;;;;;;;5.85;69.33;97693.00;5013554;28;20037;-79
2022/04/09 05:41:49;;;;;;;4.88;2.88;;;;;;;5.84;69.24;97689.56;5013182;28;20029;-79
2022/04/09 05:44:14;;;;;;;6.13;2.80;;;;;;;5.82;69.37;97693.44;5012165;28;20533;-79
2022/04/09 05:46:39;;;;;;;9.40;3.13;;;;;;;5.83;68.86;97700.38;5011486;28;20022;-79
2022/04/09 05:49:05;;;;;;;9.35;2.95;;;;;;;5.82;69.47;97709.34;4992112;28;20036;-79
2022/04/09 05:51:30;;;;;;;8.70;3.20;;;;;;;5.85;68.79;97709.66;5006396;28;20121;-79
2022/04/09 05:53:55;;;;;;;10.23;2.85;;;;;;;5.80;69.33;97712.25;5012051;28;20022;-79
2022/04/09 05:56:24;;;;;;;13.65;3.22;;;;;;;5.80;69.53;97712.25;5019504;28;20033;-79
2022/04/09 05:58:50;;;;;;;5.35;2.55;;;;;;;5.81;69.19;97719.13;4995389;28;20044;-79
2022/04/09 06:01:15;;;;;;;5.22;2.83;;;;;;;5.88;69.80;97721.63;5011488;28;20041;-79
2022/04/09 06:03:40;;;;;;;7.57;3.40;;;;;;;5.86;69.78;97727.16;5013122;28;20488;-80
2022/04/09 06:06:06;;;;;;;8.27;2.83;;;;;;;5.90;69.42;97730.94;5011472;28;20397;-80
2022/04/09 06:08:32;;;;;;;5.55;2.88;;;;;;;5.85;69.54;97738.00;5013135;28;20030;-80
2022/04/09 06:10:58;;;;;;;6.75;3.42;;;;;;;5.86;69.49;97736.97;5013342;28;20052;-80
2022/04/09 06:13:23;;;;;;;7.75;2.85;;;;;;;5.89;69.88;97752.38;4999412;28;20029;-80
2022/04/09 06:15:48;;;;;;;6.45;3.00;;;;;;;5.89;69.89;97765.59;5013162;28;20425;-80
2022/04/09 06:18:14;;;;;;;7.85;3.05;;;;;;;5.92;70.57;97765.91;5012276;28;20042;-80
2022/04/09 06:20:40;;;;;;;5.18;2.65;;;;;;;5.97;70.15;97771.28;5011912;28;20091;-79
2022/04/09 06:23:06;;;;;;;3.45;2.33;;;;;;;5.95;70.26;97785.81;5015028;28;20034;-78
2022/04/09 06:25:31;;;;;;;3.40;2.33;;;;;;;5.91;70.60;97780.22;5008752;28;20045;-78
2022/04/09 06:27:57;;;;;;;5.30;2.58;;;;;;;5.91;70.86;97782.03;5010660;28;20474;-78
2022/04/09 06:30:22;;;;;;;4.18;2.47;;;;;;;5.92;70.57;97783.63;4994674;28;20030;-78
2022/04/09 06:32:48;;;;;;;7.20;2.85;;;;;;;5.90;70.65;97788.38;5016785;28;20057;-78
2022/04/09 06:35:13;;;;;;;6.03;2.38;;;;;;;5.92;70.49;97781.78;5011336;28;20034;-78
2022/04/09 06:37:38;;;;;;;5.07;2.22;;;;;;;5.92;70.30;97791.56;5012022;28;20397;-78
2022/04/09 06:40:09;;;;;;;4.30;2.47;;;;;;;5.94;70.15;97787.63;4995243;28;20036;-78
2022/04/09 06:42:35;;;;;;;7.15;2.70;;;;;;;5.99;70.50;97795.66;5012062;28;20363;-78
2022/04/09 06:45:02;;;;;;;3.80;2.58;;;;;;;5.94;70.92;97800.88;5012354;28;20105;-78
2022/04/09 06:47:27;;;;;;;3.70;2.28;;;;;;;6.01;71.10;97812.09;5010878;28;20061;-78
2022/04/09 06:49:52;;;;;;;5.88;3.17;;;;;;;6.04;71.19;97827.53;5012352;28;20088;-78
2022/04/09 06:52:18;;;;;;;6.10;3.10;;;;;;;5.99;71.30;97837.22;5014110;28;20375;-78
2022/04/09 06:54:43;;;;;;;10.93;3.95;;;;;;;6.02;71.59;97820.88;4999383;28;20038;-78
2022/04/09 06:57:09;;;;;;;3.00;2.70;;;;;;;6.05;71.66;97825.66;5015967;28;20022;-78
2022/04/09 06:59:34;;;;;;;7.32;3.50;;;;;;;6.05;71.51;97815.88;5010596;28;20036;-78
2022/04/09 07:01:59;;;;;;;5.40;3.03;;;;;;;6.12;71.21;97821.00;5022931;28;20546;-78
2022/04/09 07:04:25;;;;;;;3.28;2.97;;;;;;;6.12;71.69;97826.28;5000188;28;20034;-78
2022/04/09 07:06:50;;;;;;;5.68;3.00;;;;;;;6.13;71.42;97822.59;5010740;28;20061;-78
2022/04/09 07:09:15;;;;;;;8.38;3.25;;;;;;;6.14;71.00;97824.19;5010816;28;20034;-78
2022/04/09 07:11:41;;;;;;;6.68;2.80;;;;;;;6.17;71.14;97836.16;5011143;28;20025;-78
2022/04/09 07:14:06;;;;;;;7.30;3.20;;;;;;;6.24;70.95;97834.13;5011410;28;20064;-78
2022/04/09 07:16:32;;;;;;;7.82;3.85;;;;;;;6.19;71.46;97829.56;5011311;28;20345;-78
2022/04/09 07:18:57;;;;;;;9.32;3.67;;;;;;;6.18;71.09;97827.94;4994539;28;20036;-78
2022/04/09 07:21:22;;;;;;;5.47;4.25;;;;;;;6.23;71.48;97837.81;5011185;28;20038;-78
2022/04/09 07:23:48;;;;;;;7.63;3.65;;;;;;;6.39;71.02;97840.44;5010571;28;20037;-78
2022/04/09 07:26:15;;;;;;;10.18;4.22;;;;;;;6.48;70.88;97846.09;4994480;28;20061;-78
2022/04/09 07:28:41;;;;;;;7.78;3.50;;;;;;;6.43;70.92;97838.09;5008427;28;20025;-78
2022/04/09 07:31:06;;;;;;;6.10;3.58;;;;;;;6.54;71.24;97847.75;5009903;28;20039;-78
2022/04/09 07:33:31;;;;;;;10.65;3.72;;;;;;;6.49;70.92;97860.94;5010615;28;20030;-78
2022/04/09 07:35:57;;;;;;;9.25;3.97;;;;;;;6.57;71.19;97869.28;5010302;28;20038;-79
2022/04/09 07:38:22;;;;;;;12.57;4.45;;;;;;;6.44;71.25;97869.66;5011151;28;20042;-78
2022/04/09 07:40:47;;;;;;;5.03;3.70;;;;;;;6.50;71.62;97868.66;5011189;28;20204;-78
2022/04/09 07:43:13;;;;;;;7.75;3.75;;;;;;;6.72;71.24;97866.81;4995151;28;20374;-79
2022/04/09 07:45:38;;;;;;;9.43;3.92;;;;;;;6.74;70.67;97872.69;5010109;28;20390;-78
2022/04/09 07:48:05;;;;;;;10.35;3.20;;;;;;;6.73;70.69;97875.56;5009841;28;20037;-79
2022/04/09 07:50:31;;;;;;;9.15;3.38;;;;;;;6.67;70.98;97890.63;4994144;28;20038;-79
2022/04/09 07:52:57;;;;;;;7.40;3.47;;;;;;;6.64;70.74;97874.41;5010681;28;20033;-79
2022/04/09 07:55:23;;;;;;;3.40;3.03;;;;;;;6.77;70.42;97887.31;4994274;28;20042;-79
2022/04/09 07:57:56;;;;;;;4.97;3.00;;;;;;;6.91;69.76;97891.16;4989469;28;20050;-79
2022/04/09 08:00:23;;;;;;;9.40;3.30;;;;;;;6.95;69.32;97900.22;5009888;28;20029;-79
2022/04/09 08:02:49;;;;;;;7.45;2.88;;;;;;;7.04;69.69;97889.97;5015019;28;20030;-79
2022/04/09 08:05:18;;;;;;;8.75;3.08;;;;;;;6.87;70.31;97892.72;4992475;28;20477;-79
2022/04/09 08:07:44;;;;;;;7.63;3.10;;;;;;;6.99;69.87;97903.97;5009039;28;20026;-79
2022/04/09 08:10:11;;;;;;;6.72;3.10;;;;;;;7.06;69.27;97904.59;5006908;28;20030;-79
2022/04/09 08:12:37;;;;;;;7.50;3.35;;;;;;;7.10;68.82;97900.38;5017484;28;20033;-79
2022/04/09 08:15:04;;;;;;;7.93;3.15;;;;;;;6.94;69.62;97914.53;5009261;28;20041;-79
2022/04/09 08:17:29;;;;;;;7.70;3.88;;;;;;;7.14;69.17;97903.34;5010198;28;20018;-79
2022/04/09 08:19:56;;;;;;;7.18;3.90;;;;;;;7.08;68.73;97915.75;4978284;28;20037;-79
2022/04/09 08:22:22;;;;;;;10.73;3.78;;;;;;;7.18;68.77;97921.19;5008746;28;20030;-79
2022/04/09 08:24:48;;;;;;;6.85;2.88;;;;;;;7.22;69.32;97916.97;5012957;28;20033;-79
2022/04/09 08:27:14;;;;;;;8.40;3.35;;;;;;;7.28;68.76;97920.47;4992029;28;20586;-79
2022/04/09 08:29:40;;;;;;;7.32;3.53;;;;;;;7.06;69.17;97912.56;4998159;28;20026;-79
2022/04/09 08:32:06;;;;;;;6.43;2.60;;;;;;;7.25;68.98;97927.06;5008837;28;20403;-79
2022/04/09 08:34:35;;;;;;;5.22;2.95;;;;;;;7.11;69.54;97915.25;5012116;28;20794;-79
2022/04/09 08:37:00;;;;;;;7.97;3.00;;;;;;;7.20;68.61;97924.41;5008254;28;20030;-79
2022/04/09 08:39:25;;;;;;;7.30;2.95;;;;;;;7.28;68.81;97928.44;5010766;28;20034;-79
2022/04/09 08:41:53;;;;;;;3.97;3.00;;;;;;;7.42;68.45;97921.69;4998235;28;20486;-79
2022/04/09 08:44:18;;;;;;;6.35;2.65;;;;;;;7.44;68.93;97941.63;4990891;28;20531;-79
2022/04/09 08:46:46;;;;;;;10.52;2.47;;;;;;;7.56;68.11;97934.31;5010885;28;20018;-79
2022/04/09 08:49:12;;;;;;;14.57;3.30;;;;;;;7.61;67.56;97949.50;5006850;28;20034;-80
2022/04/09 08:51:37;;;;;;;12.95;3.72;;;;;;;7.63;68.34;97955.34;4993563;28;20088;-80
2022/04/09 08:54:04;;;;;;;5.90;2.42;;;;;;;7.64;68.03;97935.72;4994402;28;20069;-80
2022/04/09 08:56:31;;;;;;;7.30;2.25;;;;;;;7.70;67.13;97939.22;5008600;28;20030;-79
2022/04/09 08:58:58;;;;;;;7.82;2.78;;;;;;;7.65;66.85;97945.28;4992887;28;20214;-80
2022/04/09 09:01:24;;;;;;;7.53;2.55;;;;;;;7.69;67.25;97945.59;4993144;28;20034;-79
2022/04/09 09:03:49;;;;;;;5.03;2.53;;;;;;;7.66;66.99;97959.34;4994783;28;20029;-80
2022/04/09 09:06:32;;;;;;;7.80;3.00;;;;;;;7.77;66.58;97961.88;5007797;28;20087;-80
2022/04/09 09:08:59;;;;;;;8.45;2.83;;;;;;;7.86;66.49;97960.34;5012178;28;20397;-80
2022/04/09 09:11:26;;;;;;;9.77;4.43;;;;;;;7.77;66.87;97961.06;5009332;28;20045;-80
2022/04/09 09:13:54;;;;;;;6.93;2.88;;;;;;;7.89;66.98;97967.00;4972001;28;20092;-79
2022/04/09 09:16:31;;;;;;;5.50;2.55;;;;;;;7.94;66.36;97975.03;5010173;28;20076;-80
2022/04/09 09:19:04;;;;;;;6.07;3.33;;;;;;;7.99;66.25;97973.22;4993295;28;20045;-79
2022/04/09 09:21:30;;;;;;;8.35;3.35;;;;;;;8.04;66.12;97983.06;4991857;28;20555;-80
2022/04/09 09:24:07;;;;;;;9.80;3.35;;;;;;;8.00;66.49;97979.31;5009759;28;20100;-80
2022/04/09 09:26:38;;;;;;;7.97;3.53;;;;;;;8.13;65.61;97990.34;5006601;28;20660;-80
2022/04/09 09:29:03;;;;;;;6.68;3.05;;;;;;;8.18;65.53;97978.94;5021453;28;20517;-80
2022/04/09 09:31:42;;;;;;;5.85;3.20;;;;;;;8.30;64.40;97990.22;5022090;28;20030;-80
2022/04/09 09:34:16;;;;;;;4.70;2.15;;;;;;;8.30;64.48;97985.72;5008528;28;20033;-80
2022/04/09 09:36:43;;;;;;;9.88;2.85;;;;;;;8.31;63.46;97986.53;5008946;28;20485;-80
2022/04/09 09:39:20;;;;;;;9.02;3.15;;;;;;;8.43;63.49;97997.75;5013096;28;20029;-80
2022/04/09 09:41:52;;;;;;;5.43;2.72;;;;;;;8.49;63.68;97995.97;5010259;28;20025;-80
2022/04/09 09:44:20;;;;;;;4.97;3.25;;;;;;;8.46;63.23;98007.91;5005397;28;20065;-80
2022/04/09 09:46:49;;;;;;;7.00;2.60;;;;;;;8.47;63.48;98014.03;4996990;28;20504;-80
2022/04/09 09:49:15;;;;;;;4.78;3.20;;;;;;;8.53;64.37;98019.13;5021294;28;20438;-80
2022/04/09 09:51:42;;;;;;;5.18;3.03;;;;;;;8.48;63.88;98013.75;5001772;28;20021;-80
2022/04/09 09:54:13;;;;;;;6.32;2.90;;;;;;;8.56;64.89;98026.56;4986190;28;20034;-80
2022/04/09 09:56:41;;;;;;;3.03;2.42;;;;;;;8.55;64.75;98019.66;5013945;28;20390;-80
2022/04/09 09:59:09;;;;;;;1.70;1.60;;;;;;;8.60;65.16;98026.88;5011599;28;20042;-80
2022/04/09 10:01:38;;;;;;;5.03;2.60;;;;;;;8.72;65.08;98019.50;5011774;28;20034;-80
2022/04/09 10:04:05;;;;;;;2.83;1.83;;;;;;;8.82;64.44;98024.91;5005035;28;20112;-80
2022/04/09 10:06:35;;;;;;;3.08;1.90;;;;;;;8.90;64.69;98019.91;5011050;28;20073;-80
2022/04/09 10:09:05;;;;;;;3.10;2.20;;;;;;;9.00;64.53;98027.13;4998297;28;20045;-80
2022/04/09 10:11:34;;;;;;;2.67;1.92;;;;;;;9.07;63.86;98028.50;5011554;28;20038;-80
2022/04/09 10:14:02;;;;;;;2.38;2.17;;;;;;;9.10;63.89;98037.84;4994593;28;20033;-80
2022/04/09 10:16:29;;;;;;;7.25;2.40;;;;;;;9.17;64.10;98029.63;5013506;28;20030;-80
2022/04/09 10:19:00;;;;;;;4.55;2.13;;;;;;;9.25;63.28;98021.94;4996170;28;20103;-80
2022/04/09 10:21:26;;;;;;;3.50;1.70;;;;;;;9.31;63.16;98025.41;5015332;28;20033;-80
2022/04/09 10:23:54;;;;;;;3.72;2.08;;;;;;;9.32;63.04;98030.50;5011434;28;20484;-80
2022/04/09 10:26:20;;;;;;;4.28;2.05;;;;;;;9.35;62.77;98026.50;5011285;28;20549;-80
2022/04/09 10:28:50;;;;;;;4.28;2.80;;;;;;;9.43;62.38;98021.50;5011882;28;20113;-81
2022/04/09 10:31:28;;;;;;;3.50;2.00;;;;;;;9.55;61.57;98047.88;5014079;28;20030;-81
2022/04/09 10:34:02;;;;;;;3.45;2.50;;;;;;;9.58;62.25;98026.06;5009210;28;20050;-81
2022/04/09 10:36:40;;;;;;;4.75;2.35;;;;;;;9.60;61.33;98029.25;5014372;28;20473;-80
2022/04/09 10:39:38;;;;;;;5.57;2.50;;;;;;;9.70;61.71;98024.75;4999172;28;20030;-80
2022/04/09 10:42:04;;;;;;;7.72;2.35;;;;;;;9.74;61.09;98033.03;5020411;28;20486;-80
2022/04/09 10:44:42;;;;;;;7.32;2.30;;;;;;;9.77;61.23;98043.16;5009985;28;20038;-80
2022/04/09 10:47:08;;;;;;;4.35;2.45;;;;;;;9.71;61.16;98036.22;5012282;28;20390;-81
2022/04/09 10:49:34;;;;;;;8.65;2.58;;;;;;;9.68;61.16;98036.72;5006414;28;20072;-81
2022/04/09 10:52:16;;;;;;;4.40;2.22;;;;;;;9.73;59.91;98039.41;5012380;28;20107;-80
2022/04/09 10:55:04;;;;;;;6.97;2.58;;;;;;;9.71;61.32;98038.88;4995398;28;20069;-81
2022/04/09 10:57:41;;;;;;;3.85;2.30;;;;;;;9.66;60.08;98036.19;5023343;28;20033;-80
2022/04/09 11:00:07;;;;;;;4.93;2.53;;;;;;;9.73;60.15;98026.09;5000478;28;20029;-81
2022/04/09 11:02:32;;;;;;;3.80;2.25;;;;;;;9.81;59.88;98033.56;5012449;28;20034;-80
2022/04/09 11:05:18;;;;;;;3.08;2.70;;;;;;;9.93;59.93;98036.00;4992902;28;20029;-80
2022/04/09 11:08:06;;;;;;;7.57;2.80;;;;;;;9.78;60.25;98042.09;5011303;28;20436;-80
2022/04/09 11:10:32;;;;;;;3.05;1.95;;;;;;;9.79;60.67;98033.03;5010900;28;20112;-80
2022/04/09 11:12:57;;;;;;;5.10;2.35;;;;;;;9.88;61.02;98031.47;5010234;28;20556;-81
2022/04/09 11:15:22;;;;;;;4.78;2.80;;;;;;;9.90;62.01;98034.66;5010458;28;20121;-80
2022/04/09 11:17:48;;;;;;;5.60;2.42;;;;;;;9.94;62.70;98049.06;5010193;28;20513;-80
2022/04/09 11:20:14;;;;;;;2.30;2.10;;;;;;;10.00;61.95;98039.22;5009632;28;20060;-80
2022/04/09 11:22:42;;;;;;;6.70;2.95;;;;;;;10.00;62.69;98036.56;5011758;28;20041;-80
2022/04/09 11:25:16;;;;;;;3.95;2.65;;;;;;;10.08;61.54;98031.50;5010415;28;20645;-80
2022/04/09 11:27:42;;;;;;;5.00;2.35;;;;;;;10.19;61.03;98037.66;5009962;28;20506;-81
2022/04/09 11:30:08;;;;;;;3.75;2.17;;;;;;;10.27;60.87;98021.94;5010485;28;20109;-81
2022/04/09 11:32:35;;;;;;;4.22;2.17;;;;;;;10.35;60.16;98018.72;5019639;28;20073;-80
2022/04/09 11:35:06;;;;;;;3.95;1.83;;;;;;;10.53;58.96;98015.53;5017438;28;20025;-80
2022/04/09 11:37:32;;;;;;;9.65;2.22;;;;;;;10.58;58.95;98028.06;5011097;28;20087;-80
2022/04/09 11:40:04;;;;;;;5.10;1.85;;;;;;;10.55;58.93;98016.06;5010110;28;20478;-80